createdAt,value
2018-07-28T00:01:47.721Z,9.50
2018-07-28T00:04:16.808Z,8.60
2018-07-28T00:06:45.852Z,8.17
2018-07-28T00:09:14.920Z,7.53
2018-07-28T00:11:43.961Z,9.10
2018-07-28T00:14:13.032Z,7.30
2018-07-28T00:16:42.137Z,8.10
2018-07-28T00:19:11.207Z,8.37
2018-07-28T00:21:40.254Z,8.60
2018-07-28T00:24:09.320Z,8.10
2018-07-28T00:26:38.391Z,14.13
2018-07-28T00:29:07.486Z,8.33
2018-07-28T00:31:36.889Z,8.47
2018-07-28T00:34:05.985Z,12.40
2018-07-28T00:36:35.164Z,8.83
2018-07-28T00:39:06.937Z,7.87
2018-07-28T00:41:36.423Z,7.73
2018-07-28T00:44:05.621Z,8.03
2018-07-28T00:46:34.739Z,7.67
2018-07-28T00:49:03.941Z,8.00
2018-07-28T00:51:33.376Z,7.53
2018-07-28T00:54:02.511Z,7.73
2018-07-28T00:56:31.731Z,8.67
2018-07-28T00:59:00.837Z,8.00
2018-07-28T01:01:30.015Z,7.20
2018-07-28T01:03:59.080Z,8.07
2018-07-28T01:06:28.240Z,8.47
2018-07-28T01:08:57.530Z,8.03
2018-07-28T01:11:26.973Z,8.00
2018-07-28T01:13:56.021Z,7.90
2018-07-28T01:16:25.105Z,7.70
2018-07-28T01:18:54.201Z,12.53
2018-07-28T01:21:23.399Z,8.47
2018-07-28T01:23:52.457Z,10.57
2018-07-28T01:26:21.549Z,8.47
2018-07-28T01:28:54.777Z,8.37
2018-07-28T01:31:23.908Z,7.73
2018-07-28T01:33:53.022Z,8.50
2018-07-28T01:36:22.107Z,7.90
2018-07-28T01:38:51.124Z,8.33
2018-07-28T01:41:20.453Z,8.73
2018-07-28T01:43:49.599Z,11.00
2018-07-28T01:46:18.686Z,7.97
2018-07-28T01:48:47.692Z,8.57
2018-07-28T01:51:16.811Z,16.37
2018-07-28T01:53:45.875Z,9.43
2018-07-28T01:56:14.934Z,7.50
2018-07-28T01:58:44.125Z,8.07
2018-07-28T02:01:13.229Z,9.07
2018-07-28T02:03:42.302Z,7.87
2018-07-28T02:08:46.645Z,9.93
2018-07-28T02:11:15.769Z,10.97
2018-07-28T02:13:44.884Z,9.53
2018-07-28T02:16:13.960Z,11.90
2018-07-28T02:18:43.076Z,9.10
2018-07-28T02:21:12.132Z,8.70
2018-07-28T02:23:41.266Z,9.33
2018-07-28T02:26:10.328Z,10.53
2018-07-28T02:28:39.699Z,13.50
2018-07-28T02:31:08.756Z,9.43
2018-07-28T02:33:37.840Z,10.20
2018-07-28T02:36:07.585Z,10.00
2018-07-28T02:38:36.668Z,10.10
2018-07-28T02:41:05.777Z,10.23
2018-07-28T02:43:34.864Z,9.93
2018-07-28T02:46:03.998Z,9.27
2018-07-28T02:48:33.110Z,14.30
2018-07-28T02:51:02.217Z,10.60
2018-07-28T02:53:31.342Z,10.13
2018-07-28T02:56:00.436Z,9.13
2018-07-28T02:58:29.566Z,11.40
2018-07-28T03:00:58.683Z,9.00
2018-07-28T03:03:27.747Z,9.53
2018-07-28T03:05:56.841Z,9.70
2018-07-28T03:08:27.845Z,8.57
2018-07-28T03:10:56.921Z,13.73
2018-07-28T03:13:26.517Z,9.30
2018-07-28T03:15:55.631Z,9.83
2018-07-28T03:18:24.690Z,9.10
2018-07-28T03:20:53.778Z,11.30
2018-07-28T03:23:22.842Z,9.27
2018-07-28T03:25:51.920Z,11.13
2018-07-28T03:28:20.953Z,9.27
2018-07-28T03:30:50.013Z,11.50
2018-07-28T03:33:19.082Z,8.47
2018-07-28T03:35:48.154Z,8.47
2018-07-28T03:38:17.235Z,9.47
2018-07-28T03:40:46.344Z,9.23
2018-07-28T03:43:15.405Z,11.23
2018-07-28T03:45:44.537Z,8.70
2018-07-28T03:48:13.633Z,8.83
2018-07-28T03:50:42.991Z,12.80
2018-07-28T03:53:12.072Z,10.40
2018-07-28T03:55:41.186Z,9.43
2018-07-28T03:58:10.266Z,8.90
2018-07-28T04:00:39.346Z,9.90
2018-07-28T04:03:08.477Z,9.63
2018-07-28T04:05:37.579Z,21.97
2018-07-28T04:08:06.647Z,11.43
2018-07-28T04:10:35.775Z,11.27
2018-07-28T04:13:04.935Z,13.50
2018-07-28T04:15:34.001Z,10.43
2018-07-28T04:18:03.096Z,9.37
2018-07-28T04:20:32.127Z,10.30
2018-07-28T04:23:01.194Z,9.70
2018-07-28T04:25:30.249Z,10.50
2018-07-28T04:27:59.366Z,10.57
2018-07-28T04:30:28.411Z,9.80
2018-07-28T04:32:58.402Z,16.00
2018-07-28T04:35:27.434Z,8.73
2018-07-28T04:37:56.569Z,16.10
2018-07-28T04:40:25.682Z,10.63
2018-07-28T04:42:54.809Z,9.33
2018-07-28T04:45:24.232Z,10.40
2018-07-28T04:47:53.326Z,9.67
2018-07-28T04:50:22.377Z,17.77
2018-07-28T04:52:51.614Z,9.73
2018-07-28T04:55:20.689Z,12.27
2018-07-28T04:57:49.769Z,10.47
2018-07-28T05:00:18.908Z,9.90
2018-07-28T05:02:47.992Z,9.73
2018-07-28T05:05:17.096Z,9.20
2018-07-28T05:07:46.242Z,14.33
2018-07-28T05:10:15.272Z,9.37
2018-07-28T05:12:44.345Z,11.93
2018-07-28T05:15:13.411Z,10.93
2018-07-28T05:17:42.490Z,18.30
2018-07-28T05:20:11.573Z,10.40
2018-07-28T05:22:40.631Z,9.40
2018-07-28T05:25:09.785Z,9.13
2018-07-28T05:27:38.831Z,9.77
2018-07-28T05:30:09.376Z,9.90
2018-07-28T05:32:38.458Z,16.20
2018-07-28T05:35:08.834Z,9.70
2018-07-28T05:37:37.892Z,8.23
2018-07-28T05:40:07.011Z,9.90
2018-07-28T05:42:36.143Z,12.80
2018-07-28T05:45:06.000Z,20.73
2018-07-28T05:47:35.315Z,18.90
2018-07-28T05:50:05.096Z,10.03
2018-07-28T05:52:34.186Z,10.53
2018-07-28T05:55:03.303Z,11.73
2018-07-28T05:57:32.841Z,24.63
2018-07-28T06:00:01.892Z,14.03
2018-07-28T06:02:31.081Z,13.90
2018-07-28T06:05:00.107Z,11.17
2018-07-28T06:07:29.266Z,9.30
2018-07-28T06:09:58.369Z,24.43
2018-07-28T06:12:27.466Z,18.33
2018-07-28T06:14:56.572Z,8.83
2018-07-28T06:17:25.675Z,14.80
2018-07-28T06:19:54.760Z,14.50
2018-07-28T06:22:23.963Z,14.43
2018-07-28T06:24:53.039Z,17.83
2018-07-28T06:27:22.148Z,16.23
2018-07-28T06:29:51.202Z,8.90
2018-07-28T06:32:20.263Z,11.97
2018-07-28T06:34:49.367Z,19.43
2018-07-28T06:37:18.465Z,16.50
2018-07-28T06:39:47.574Z,12.30
2018-07-28T06:42:16.718Z,26.13
2018-07-28T06:44:45.790Z,11.70
2018-07-28T06:47:14.944Z,16.53
2018-07-28T06:49:43.997Z,14.47
2018-07-28T06:52:13.129Z,14.20
2018-07-28T06:54:42.161Z,17.50
2018-07-28T06:57:11.321Z,13.47
2018-07-28T06:59:40.412Z,13.57
2018-07-28T07:02:09.520Z,18.50
2018-07-28T07:04:38.609Z,16.70
2018-07-28T07:07:07.764Z,13.17
2018-07-28T07:09:36.872Z,11.13
2018-07-28T07:12:06.159Z,8.23
2018-07-28T07:14:35.299Z,19.37
2018-07-28T07:17:04.394Z,13.90
2018-07-28T07:19:33.465Z,10.27
2018-07-28T07:22:02.650Z,15.20
2018-07-28T07:24:31.885Z,12.77
2018-07-28T07:27:01.079Z,9.23
2018-07-28T07:29:30.289Z,9.40
2018-07-28T07:31:59.673Z,10.60
2018-07-28T07:34:28.894Z,12.67
2018-07-28T07:36:58.401Z,9.53
2018-07-28T07:39:27.556Z,9.90
2018-07-28T07:41:56.789Z,9.67
2018-07-28T07:44:26.007Z,10.23
2018-07-28T07:46:55.053Z,8.60
2018-07-28T07:49:24.245Z,7.43
2018-07-28T07:51:53.392Z,12.67
2018-07-28T07:54:22.482Z,14.80
2018-07-28T07:56:51.559Z,8.97
2018-07-28T07:59:20.652Z,9.80
2018-07-28T08:01:49.753Z,10.70
2018-07-28T08:04:18.861Z,10.93
2018-07-28T08:06:48.458Z,7.50
2018-07-28T08:09:17.521Z,9.60
2018-07-28T08:11:46.635Z,16.47
2018-07-28T08:14:15.727Z,8.60
2018-07-28T08:16:44.876Z,7.50
2018-07-28T08:19:13.954Z,6.67
2018-07-28T08:21:43.517Z,16.60
2018-07-28T08:24:13.056Z,13.13
2018-07-28T08:26:42.275Z,8.95
2018-07-28T08:29:11.570Z,8.07
2018-07-28T08:31:40.660Z,9.60
2018-07-28T08:34:10.270Z,8.83
2018-07-28T08:36:39.376Z,11.23
2018-07-28T08:39:12.456Z,6.73
2018-07-28T08:41:42.385Z,7.93
2018-07-28T08:44:11.603Z,5.87
2018-07-28T08:46:41.236Z,9.27
2018-07-28T08:49:10.383Z,12.03
2018-07-28T08:51:39.445Z,9.63
2018-07-28T08:54:08.581Z,6.07
2018-07-28T08:56:37.718Z,7.60
2018-07-28T08:59:06.962Z,5.00
2018-07-28T09:01:36.149Z,5.33
2018-07-28T09:04:05.239Z,8.00
2018-07-28T09:06:35.023Z,6.97
2018-07-28T09:09:06.229Z,4.10
2018-07-28T09:11:35.353Z,4.30
2018-07-28T09:14:04.569Z,6.33
2018-07-28T09:16:33.740Z,5.80
2018-07-28T09:19:02.751Z,4.70
2018-07-28T09:21:31.826Z,7.43
2018-07-28T09:24:01.075Z,4.53
2018-07-28T09:26:30.295Z,4.87
2018-07-28T09:28:59.595Z,6.50
2018-07-28T09:31:28.621Z,8.40
2018-07-28T09:33:58.154Z,4.20
2018-07-28T09:36:27.374Z,4.47
2018-07-28T09:38:56.498Z,8.33
2018-07-28T09:41:25.623Z,10.00
2018-07-28T09:43:54.818Z,5.43
2018-07-28T09:46:24.501Z,5.50
2018-07-28T09:48:53.512Z,10.83
2018-07-28T09:51:22.546Z,6.10
2018-07-28T09:53:51.651Z,4.63
2018-07-28T09:56:20.785Z,4.43
2018-07-28T09:58:49.882Z,4.20
2018-07-28T10:01:22.387Z,10.80
2018-07-28T10:03:52.132Z,5.20
2018-07-28T10:06:21.390Z,4.90
2018-07-28T10:08:50.534Z,4.53
2018-07-28T10:11:19.682Z,4.20
2018-07-28T10:13:48.802Z,4.77
2018-07-28T10:16:18.331Z,4.73
2018-07-28T10:18:47.453Z,16.30
2018-07-28T10:21:16.603Z,4.67
2018-07-28T10:23:46.001Z,5.40
2018-07-28T10:26:15.218Z,5.03
2018-07-28T10:28:44.408Z,5.23
2018-07-28T10:31:13.475Z,5.03
2018-07-28T10:33:42.685Z,4.47
2018-07-28T10:36:11.902Z,5.00
2018-07-28T10:38:41.088Z,7.10
2018-07-28T10:41:10.286Z,4.77
2018-07-28T10:43:39.363Z,5.40
2018-07-28T10:46:08.607Z,5.37
2018-07-28T10:48:37.890Z,5.00
2018-07-28T10:51:07.745Z,5.50
2018-07-28T10:53:36.887Z,5.57
2018-07-28T10:56:06.039Z,6.33
2018-07-28T10:58:35.198Z,4.90
2018-07-28T11:01:05.282Z,5.50
2018-07-28T11:03:34.514Z,5.53
2018-07-28T11:06:03.915Z,5.53
2018-07-28T11:08:32.997Z,6.73
2018-07-28T11:11:02.335Z,5.00
2018-07-28T11:13:31.547Z,5.30
2018-07-28T11:16:00.642Z,5.10
2018-07-28T11:18:29.829Z,4.90
2018-07-28T11:20:58.977Z,5.00
2018-07-28T11:23:39.748Z,6.60
2018-07-28T11:26:08.874Z,6.03
2018-07-28T11:28:37.993Z,8.70
2018-07-28T11:31:17.085Z,5.47
2018-07-28T11:33:57.503Z,6.53
2018-07-28T11:36:37.797Z,5.43
2018-07-28T11:39:18.879Z,6.23
2018-07-28T11:41:59.568Z,7.77
2018-07-28T11:44:39.786Z,6.70
2018-07-28T11:47:08.917Z,6.23
2018-07-28T11:49:38.137Z,10.37
2018-07-28T11:52:07.275Z,7.23
2018-07-28T11:54:36.409Z,7.90
2018-07-28T11:57:05.510Z,9.50
2018-07-28T11:59:34.590Z,7.57
2018-07-28T12:02:03.807Z,7.80
2018-07-28T12:04:32.934Z,9.90
2018-07-28T12:07:02.119Z,7.87
2018-07-28T12:09:31.221Z,14.73
2018-07-28T12:12:00.391Z,11.30
2018-07-28T12:14:29.517Z,7.93
2018-07-28T12:16:58.678Z,9.30
2018-07-28T12:19:27.813Z,7.43
2018-07-28T12:21:57.184Z,7.93
2018-07-28T12:24:26.378Z,11.87
2018-07-28T12:26:55.466Z,7.60
2018-07-28T12:29:24.595Z,8.70
2018-07-28T12:31:53.707Z,6.83
2018-07-28T12:34:22.766Z,7.83
2018-07-28T12:36:51.903Z,7.57
2018-07-28T12:39:21.051Z,8.23
2018-07-28T12:41:50.156Z,11.03
2018-07-28T12:44:19.202Z,10.37
2018-07-28T12:46:48.332Z,7.67
2018-07-28T12:49:17.465Z,13.40
2018-07-28T12:51:46.541Z,11.77
2018-07-28T12:54:15.644Z,8.20
2018-07-28T12:56:45.098Z,8.20
2018-07-28T12:59:14.179Z,9.20
2018-07-28T13:01:43.387Z,9.00
2018-07-28T13:04:12.654Z,9.10
2018-07-28T13:06:41.835Z,9.10
2018-07-28T13:09:12.216Z,10.63
2018-07-28T13:11:41.767Z,8.13
2018-07-28T13:14:11.423Z,8.07
2018-07-28T13:16:40.706Z,9.13
2018-07-28T13:19:10.241Z,8.97
2018-07-28T13:21:39.453Z,12.60
2018-07-28T13:24:08.650Z,7.87
2018-07-28T13:26:37.808Z,8.73
2018-07-28T13:29:07.763Z,7.97
2018-07-28T13:31:36.942Z,9.03
2018-07-28T13:34:06.046Z,12.33
2018-07-28T13:36:35.182Z,8.90
2018-07-28T13:39:05.663Z,9.20
2018-07-28T13:41:34.846Z,13.00
2018-07-28T13:44:05.315Z,8.03
2018-07-28T13:46:34.357Z,8.73
2018-07-28T13:49:03.504Z,7.10
2018-07-28T13:51:32.611Z,10.93
2018-07-28T13:54:01.701Z,9.60
2018-07-28T13:56:30.766Z,6.40
2018-07-28T13:58:59.892Z,6.77
2018-07-28T14:01:29.578Z,6.80
2018-07-28T14:03:58.720Z,8.27
2018-07-28T14:06:28.347Z,6.97
2018-07-28T14:08:57.587Z,6.30
2018-07-28T14:11:26.748Z,5.97
2018-07-28T14:13:55.951Z,7.60
2018-07-28T14:16:25.200Z,5.70
2018-07-28T14:18:54.394Z,6.83
2018-07-28T14:21:23.583Z,6.60
2018-07-28T14:23:52.606Z,6.20
2018-07-28T14:26:21.765Z,6.63
2018-07-28T14:28:51.006Z,5.97
2018-07-28T14:31:20.214Z,6.03
2018-07-28T14:33:49.732Z,5.80
2018-07-28T14:36:18.833Z,5.20
2018-07-28T14:38:47.925Z,11.60
2018-07-28T14:41:18.964Z,11.67
2018-07-28T14:43:48.129Z,5.70
2018-07-28T14:46:17.350Z,5.73
2018-07-28T14:48:46.473Z,6.67
2018-07-28T14:51:15.670Z,5.53
2018-07-28T14:53:44.766Z,5.93
2018-07-28T14:56:14.466Z,5.93
2018-07-28T14:58:43.676Z,5.03
2018-07-28T15:01:12.765Z,6.83
2018-07-28T15:03:41.898Z,5.40
2018-07-28T15:06:11.174Z,5.73
2018-07-28T15:08:40.365Z,6.20
2018-07-28T15:11:09.468Z,5.63
2018-07-28T15:13:38.777Z,7.20
2018-07-28T15:16:08.483Z,7.13
2018-07-28T15:18:37.575Z,6.77
2018-07-28T15:21:06.812Z,5.40
2018-07-28T15:23:35.890Z,5.37
2018-07-28T15:26:05.026Z,5.80
2018-07-28T15:28:34.156Z,5.40
2018-07-28T15:31:03.239Z,5.57
2018-07-28T15:33:32.405Z,5.73
2018-07-28T15:36:01.450Z,6.17
2018-07-28T15:38:30.580Z,5.70
2018-07-28T15:40:59.679Z,5.13
2018-07-28T15:43:28.770Z,5.37
2018-07-28T15:45:58.228Z,7.63
2018-07-28T15:48:27.327Z,5.23
2018-07-28T15:50:56.454Z,6.70
2018-07-28T15:53:25.651Z,5.00
2018-07-28T15:55:54.779Z,9.03
2018-07-28T15:58:23.811Z,5.57
2018-07-28T16:00:52.940Z,5.50
2018-07-28T16:03:22.036Z,8.83
2018-07-28T16:05:51.094Z,5.70
2018-07-28T16:08:20.181Z,10.73
2018-07-28T16:10:49.458Z,6.73
2018-07-28T16:13:18.542Z,5.70
2018-07-28T16:15:47.721Z,7.10
2018-07-28T16:18:16.801Z,5.40
2018-07-28T16:20:46.031Z,5.33
2018-07-28T16:23:15.089Z,5.13
2018-07-28T16:25:44.169Z,11.20
2018-07-28T16:28:13.302Z,5.80
2018-07-28T16:30:42.426Z,6.10
2018-07-28T16:33:11.571Z,5.20
2018-07-28T16:35:40.639Z,6.37
2018-07-28T16:38:09.719Z,5.60
2018-07-28T16:40:38.819Z,5.23
2018-07-28T16:43:07.941Z,5.00
2018-07-28T16:45:37.070Z,6.73
2018-07-28T16:48:06.181Z,6.03
2018-07-28T16:50:35.599Z,5.07
2018-07-28T16:53:04.731Z,3.97
2018-07-28T16:55:37.221Z,3.90
2018-07-28T16:58:06.325Z,3.70
2018-07-28T17:00:35.473Z,4.00
2018-07-28T17:03:04.595Z,3.90
2018-07-28T17:05:33.907Z,5.13
2018-07-28T17:08:03.161Z,4.83
2018-07-28T17:10:32.253Z,3.63
2018-07-28T17:13:01.358Z,4.37
2018-07-28T17:15:30.453Z,3.60
2018-07-28T17:17:59.611Z,4.00
2018-07-28T17:20:28.679Z,3.67
2018-07-28T17:22:57.827Z,5.50
2018-07-28T17:25:26.910Z,4.40
2018-07-28T17:27:56.015Z,4.13
2018-07-28T17:30:25.101Z,4.93
2018-07-28T17:32:54.290Z,5.40
2018-07-28T17:35:23.665Z,3.60
2018-07-28T17:37:52.847Z,3.83
2018-07-28T17:40:21.907Z,5.03
2018-07-28T17:42:51.061Z,6.03
2018-07-28T17:45:20.099Z,4.70
2018-07-28T17:47:49.225Z,3.63
2018-07-28T17:50:18.305Z,4.13
2018-07-28T17:52:47.433Z,3.63
2018-07-28T17:55:16.549Z,4.10
2018-07-28T17:57:45.652Z,4.83
2018-07-28T18:00:14.801Z,3.83
2018-07-28T18:02:43.945Z,4.10
2018-07-28T18:05:13.331Z,4.00
2018-07-28T18:07:42.569Z,6.17
2018-07-28T18:10:11.564Z,5.50
2018-07-28T18:12:40.725Z,4.70
2018-07-28T18:15:09.819Z,4.10
2018-07-28T18:17:38.939Z,4.40
2018-07-28T18:20:08.033Z,3.43
2018-07-28T18:22:37.127Z,5.43
2018-07-28T18:25:06.224Z,7.60
2018-07-28T18:27:35.326Z,4.63
2018-07-28T18:30:04.734Z,4.40
2018-07-28T18:32:33.919Z,5.10
2018-07-28T18:35:03.042Z,3.43
2018-07-28T18:37:32.143Z,3.63
2018-07-28T18:40:01.303Z,3.30
2018-07-28T18:42:30.622Z,4.30
2018-07-28T18:44:59.814Z,3.30
2018-07-28T18:47:28.933Z,3.50
2018-07-28T18:49:58.983Z,3.40
2018-07-28T18:52:28.049Z,4.17
2018-07-28T18:54:57.316Z,2.90
2018-07-28T18:57:26.382Z,4.07
2018-07-28T18:59:55.562Z,2.97
2018-07-28T19:02:24.727Z,3.33
2018-07-28T19:04:53.850Z,7.93
2018-07-28T19:07:23.047Z,8.60
2018-07-28T19:09:52.978Z,2.97
2018-07-28T19:12:27.798Z,3.20
2018-07-28T19:14:56.893Z,3.17
2018-07-28T19:17:31.476Z,3.33
2018-07-28T19:20:00.737Z,3.03
2018-07-28T19:22:35.616Z,2.80
2018-07-28T19:25:04.754Z,2.70
2018-07-28T19:27:34.253Z,7.83
2018-07-28T19:30:03.424Z,3.27
2018-07-28T19:32:32.680Z,4.47
2018-07-28T19:35:01.832Z,2.70
2018-07-28T19:37:30.970Z,3.10
2018-07-28T19:40:00.196Z,6.80
2018-07-28T19:42:34.721Z,2.80
2018-07-28T19:45:03.808Z,2.70
2018-07-28T19:47:32.899Z,3.30
2018-07-28T19:50:01.947Z,6.63
2018-07-28T19:52:31.061Z,3.70
2018-07-28T19:55:00.159Z,5.40
2018-07-28T19:57:29.302Z,3.53
2018-07-28T19:59:59.160Z,3.30
2018-07-28T20:02:28.412Z,3.50
2018-07-28T20:04:57.556Z,6.20
2018-07-28T20:07:26.710Z,3.40
2018-07-28T20:09:55.810Z,3.73
2018-07-28T20:12:24.905Z,13.00
2018-07-28T20:14:55.936Z,3.57
2018-07-28T20:17:25.094Z,3.00
2018-07-28T20:19:54.178Z,3.20
2018-07-28T20:22:23.225Z,3.40
2018-07-28T20:24:52.377Z,6.83
2018-07-28T20:27:21.452Z,3.60
2018-07-28T20:29:50.530Z,3.40
2018-07-28T20:32:19.760Z,4.50
2018-07-28T20:34:48.884Z,6.37
2018-07-28T20:37:17.986Z,3.40
2018-07-28T20:39:47.153Z,4.23
2018-07-28T20:42:16.225Z,10.37
2018-07-28T20:44:45.582Z,6.50
2018-07-28T20:47:15.039Z,10.20
2018-07-28T20:49:44.190Z,5.90
2018-07-28T20:52:14.107Z,4.80
2018-07-28T20:54:43.203Z,4.53
2018-07-28T20:57:12.478Z,5.90
2018-07-28T20:59:41.540Z,3.50
2018-07-28T21:02:10.593Z,3.60
2018-07-28T21:04:39.739Z,3.90
2018-07-28T21:07:08.802Z,3.30
2018-07-28T21:09:37.952Z,5.03
2018-07-28T21:12:07.056Z,8.10
2018-07-28T21:14:36.194Z,5.07
2018-07-28T21:17:05.469Z,3.80
2018-07-28T21:19:34.553Z,3.80
2018-07-28T21:22:03.622Z,4.97
2018-07-28T21:24:32.716Z,4.90
2018-07-28T21:27:01.805Z,4.20
2018-07-28T21:29:30.918Z,3.60
2018-07-28T21:32:00.051Z,5.07
2018-07-28T21:34:29.174Z,4.30
2018-07-28T21:36:58.314Z,4.50
2018-07-28T21:39:27.883Z,5.00
2018-07-28T21:41:56.939Z,4.60
2018-07-28T21:44:26.029Z,9.00
2018-07-28T21:46:55.085Z,11.47
2018-07-28T21:49:24.218Z,4.30
2018-07-28T21:51:53.261Z,5.00
2018-07-28T21:54:22.815Z,4.40
2018-07-28T21:56:51.886Z,4.13
2018-07-28T21:59:20.930Z,4.60
2018-07-28T22:01:50.359Z,5.13
2018-07-28T22:04:25.462Z,3.47
2018-07-28T22:06:54.601Z,3.43
2018-07-28T22:09:23.782Z,4.77
2018-07-28T22:11:52.943Z,3.30
2018-07-28T22:14:22.145Z,5.00
2018-07-28T22:16:51.216Z,3.63
2018-07-28T22:19:20.339Z,7.03
2018-07-28T22:21:49.465Z,4.10
2018-07-28T22:24:18.678Z,7.00
2018-07-28T22:26:47.762Z,5.10
2018-07-28T22:29:16.835Z,5.20
2018-07-28T22:31:45.913Z,4.13
2018-07-28T22:34:15.027Z,4.00
2018-07-28T22:36:44.058Z,4.37
2018-07-28T22:39:13.204Z,3.63
2018-07-28T22:41:42.285Z,4.00
2018-07-28T22:44:11.406Z,4.57
2018-07-28T22:46:40.491Z,5.93
2018-07-28T22:49:09.602Z,3.80
2018-07-28T22:51:38.683Z,6.90
2018-07-28T22:54:07.834Z,3.70
2018-07-28T22:56:36.953Z,3.00
2018-07-28T22:59:06.234Z,3.77
2018-07-28T23:01:35.307Z,3.63
2018-07-28T23:04:04.429Z,4.00
2018-07-28T23:06:33.603Z,3.93
2018-07-28T23:09:02.795Z,5.20
2018-07-28T23:11:31.994Z,3.70
2018-07-28T23:14:01.095Z,4.10
2018-07-28T23:16:30.244Z,3.73
2018-07-28T23:18:59.380Z,4.47
2018-07-28T23:21:28.472Z,3.87
2018-07-28T23:23:57.702Z,9.80
2018-07-28T23:26:26.777Z,4.83
2018-07-28T23:28:55.959Z,3.90
2018-07-28T23:31:25.073Z,4.30
2018-07-28T23:33:54.226Z,5.03
2018-07-28T23:36:23.349Z,5.90
2018-07-28T23:38:52.551Z,4.37
2018-07-28T23:41:21.711Z,3.67
2018-07-28T23:43:50.746Z,3.63
2018-07-28T23:46:19.873Z,4.80
2018-07-28T23:48:48.950Z,6.03
2018-07-28T23:51:18.030Z,3.80
2018-07-28T23:53:47.089Z,3.67
2018-07-28T23:56:16.226Z,3.67
2018-07-28T23:58:45.312Z,5.40
